Time;durP1;ratioP1;P1;durP2;ratioP2;P2;SDS_P1;SDS_P2;PMS_P1;PMS_P2;Temp;Humidity;BMP_temperature;BMP_pressure;BME280_temperature;BME280_humidity;BME280_pressure;Samples;Min_cycle;Max_cycle;Signal;HPM_P1;HPM_P2
2022/05/09 00:01:41;;;;;;;3.90;2.20;;;;;;;11.69;94.58;93198.00;4996154;28;20531;-78
2022/05/09 00:04:07;;;;;;;4.72;2.25;;;;;;;11.63;96.27;93192.00;5011901;28;20038;-78
2022/05/09 00:06:33;;;;;;;4.45;2.15;;;;;;;11.62;94.03;93193.84;5012883;28;20188;-78
2022/05/09 00:08:58;;;;;;;4.00;2.35;;;;;;;11.60;93.06;93187.31;5013182;28;20462;-78
2022/05/09 00:11:24;;;;;;;4.68;2.20;;;;;;;11.57;91.99;93190.47;4995400;28;20385;-78
2022/05/09 00:13:50;;;;;;;7.07;2.40;;;;;;;11.58;93.64;93189.41;5012232;28;20496;-78
2022/05/09 00:16:15;;;;;;;4.40;2.40;;;;;;;11.49;94.46;93183.19;5011935;28;20205;-78
2022/05/09 00:18:41;;;;;;;4.68;2.00;;;;;;;11.52;95.45;93183.41;4997329;28;20034;-78
2022/05/09 00:21:07;;;;;;;5.95;2.05;;;;;;;11.49;95.70;93189.22;4998437;28;20034;-78
2022/05/09 00:23:33;;;;;;;4.93;2.33;;;;;;;11.43;96.08;93183.22;4997929;28;20258;-78
2022/05/09 00:26:00;;;;;;;5.35;2.20;;;;;;;11.42;95.95;93191.38;5013795;28;20141;-78
2022/05/09 00:28:26;;;;;;;5.55;2.33;;;;;;;11.38;95.89;93180.66;5015496;28;20324;-79
2022/05/09 00:30:54;;;;;;;4.88;2.20;;;;;;;11.34;95.34;93168.38;5015540;28;20065;-79
2022/05/09 00:33:24;;;;;;;7.03;2.20;;;;;;;11.35;94.54;93178.59;5014944;28;20037;-79
2022/05/09 00:35:50;;;;;;;3.53;2.05;;;;;;;11.31;94.63;93179.41;5011388;28;20133;-78
2022/05/09 00:38:16;;;;;;;4.13;2.15;;;;;;;11.26;94.93;93177.59;4997974;28;20066;-78
2022/05/09 00:41:28;;;;;;;5.38;2.70;;;;;;;11.23;95.31;93173.66;4997738;28;20514;-79
2022/05/09 00:43:36;;;;;;;6.25;2.20;;;;;;;11.18;96.33;93165.06;5013729;28;20050;-78
2022/05/09 00:46:04;;;;;;;6.78;2.58;;;;;;;11.17;97.56;93166.13;4995678;28;20507;-78
2022/05/09 00:48:30;;;;;;;4.50;2.50;;;;;;;11.18;96.99;93172.94;5014833;28;20068;-78
2022/05/09 00:50:56;;;;;;;5.90;2.70;;;;;;;11.09;96.12;93164.09;5014297;28;20050;-78
2022/05/09 00:53:23;;;;;;;5.13;2.22;;;;;;;11.11;95.89;93172.47;4997608;28;20048;-78
2022/05/09 00:55:55;;;;;;;11.52;2.80;;;;;;;11.09;95.70;93174.56;5014089;28;20092;-79
2022/05/09 00:58:27;;;;;;;4.25;2.35;;;;;;;11.06;95.68;93177.75;5013574;28;20025;-77
2022/05/09 01:00:55;;;;;;;7.18;2.30;;;;;;;11.06;96.32;93177.75;5014694;28;20042;-78
2022/05/09 01:03:38;;;;;;;6.60;2.58;;;;;;;11.03;96.44;93179.03;5014292;28;20034;-78
2022/05/09 01:06:04;;;;;;;4.45;2.40;;;;;;;11.02;95.75;93180.88;5013891;28;20113;-78
2022/05/09 01:08:32;;;;;;;5.93;2.67;;;;;;;11.00;95.30;93182.22;5013100;28;20117;-78
2022/05/09 01:10:58;;;;;;;5.22;2.33;;;;;;;10.98;95.59;93172.00;5014168;28;20492;-78
2022/05/09 01:13:30;;;;;;;4.95;2.58;;;;;;;11.02;95.43;93182.72;5013940;28;20407;-78
2022/05/09 01:15:58;;;;;;;5.35;2.35;;;;;;;11.01;95.16;93181.94;5014330;28;20399;-77
2022/05/09 01:18:24;;;;;;;5.88;2.60;;;;;;;10.99;95.52;93181.44;5001824;28;20514;-78
2022/05/09 01:20:50;;;;;;;4.03;2.45;;;;;;;10.94;95.46;93178.84;5023941;28;20048;-77
2022/05/09 01:23:17;;;;;;;4.00;2.30;;;;;;;10.95;96.20;93185.66;5033168;28;20042;-78
2022/05/09 01:25:43;;;;;;;6.10;2.67;;;;;;;10.94;96.55;93189.34;5028739;28;20399;-78
2022/05/09 01:28:11;;;;;;;3.72;2.22;;;;;;;10.93;96.46;93192.22;4995664;28;20591;-78
2022/05/09 01:30:56;;;;;;;4.90;2.80;;;;;;;10.90;96.44;93184.88;5013389;28;20113;-78
2022/05/09 01:33:27;;;;;;;8.02;3.67;;;;;;;10.86;95.95;93189.13;5012758;28;20041;-80
2022/05/09 01:36:10;;;;;;;6.87;2.60;;;;;;;10.84;95.74;93200.63;5001982;28;20041;-78
2022/05/09 01:38:46;;;;;;;4.38;2.50;;;;;;;10.79;95.86;93192.81;5000969;28;20289;-78
2022/05/09 01:41:12;;;;;;;8.00;2.88;;;;;;;10.77;95.92;93188.88;5013393;28;20084;-78
2022/05/09 01:43:41;;;;;;;4.38;2.47;;;;;;;10.75;95.59;93194.38;4996450;28;20037;-78
2022/05/09 01:46:23;;;;;;;5.07;2.50;;;;;;;10.69;95.59;93197.28;5013652;28;20030;-78
2022/05/09 01:51:34;;;;;;;4.10;2.40;;;;;;;10.65;95.51;93196.25;5013934;28;20040;-79
2022/05/09 01:53:59;;;;;;;4.13;2.47;;;;;;;10.62;95.19;93194.97;5013689;28;20036;-78
2022/05/09 01:56:29;;;;;;;4.32;2.70;;;;;;;10.54;95.52;93185.06;4980258;28;20038;-77
2022/05/09 01:58:55;;;;;;;4.88;2.65;;;;;;;10.58;95.54;93192.13;5012579;28;20032;-79
2022/05/09 02:01:23;;;;;;;6.10;2.70;;;;;;;10.56;95.13;93196.84;5011953;28;20455;-79
2022/05/09 02:03:50;;;;;;;3.90;2.60;;;;;;;10.57;94.62;93190.53;5013648;28;20068;-78
2022/05/09 02:06:17;;;;;;;5.75;2.80;;;;;;;10.58;94.45;93189.50;5013194;28;20049;-79
2022/05/09 02:08:43;;;;;;;7.32;2.60;;;;;;;10.58;94.01;93197.34;4993398;28;20038;-79
2022/05/09 02:11:10;;;;;;;5.15;2.55;;;;;;;10.53;94.04;93192.13;4992958;28;20066;-78
2022/05/09 02:13:35;;;;;;;5.95;3.03;;;;;;;10.53;93.83;93192.13;5010534;28;20022;-78
2022/05/09 02:16:02;;;;;;;4.97;2.70;;;;;;;10.51;93.96;93191.59;5013524;28;20570;-79
2022/05/09 02:18:27;;;;;;;4.53;2.45;;;;;;;10.49;94.02;93193.72;5013298;28;20052;-78
2022/05/09 02:20:53;;;;;;;6.10;2.80;;;;;;;10.47;94.66;93198.44;5013618;28;20412;-79
2022/05/09 02:23:19;;;;;;;5.45;3.03;;;;;;;10.47;94.27;93198.44;5013755;28;20427;-78
2022/05/09 02:25:45;;;;;;;4.20;2.63;;;;;;;10.46;95.03;93202.09;5014758;28;20042;-79
2022/05/09 02:28:13;;;;;;;4.47;2.65;;;;;;;10.47;95.30;93198.44;5013944;28;20562;-79
2022/05/09 02:30:39;;;;;;;5.80;2.55;;;;;;;10.45;94.94;93195.31;5013457;28;20045;-78
2022/05/09 02:33:06;;;;;;;6.70;2.70;;;;;;;10.45;94.41;93202.34;4990920;28;20110;-78
2022/05/09 02:35:33;;;;;;;5.38;2.75;;;;;;;10.43;93.96;93194.78;4993529;28;20026;-78
2022/05/09 02:37:59;;;;;;;4.40;2.78;;;;;;;10.40;95.38;93190.06;4998707;28;20443;-77
2022/05/09 02:40:25;;;;;;;5.75;2.55;;;;;;;10.40;94.77;93192.69;5013392;28;20061;-78
2022/05/09 02:42:53;;;;;;;9.38;2.45;;;;;;;10.33;94.72;93184.34;5012261;28;20034;-79
2022/05/09 02:45:19;;;;;;;6.30;2.55;;;;;;;10.33;94.80;93210.50;4978721;28;20048;-79
2022/05/09 02:47:45;;;;;;;3.67;2.25;;;;;;;10.31;94.87;93197.72;4994414;28;20042;-80
2022/05/09 02:50:12;;;;;;;4.72;2.70;;;;;;;10.32;94.36;93203.72;4996109;28;20490;-80
2022/05/09 02:52:38;;;;;;;5.50;2.65;;;;;;;10.29;94.07;93193.78;5015230;28;20042;-80
2022/05/09 02:55:05;;;;;;;5.20;2.92;;;;;;;10.27;94.22;93201.88;5013360;28;20333;-81
2022/05/09 02:57:31;;;;;;;4.13;2.45;;;;;;;10.28;93.96;93197.41;5014884;28;20369;-79
2022/05/09 02:59:57;;;;;;;5.60;2.65;;;;;;;10.24;94.09;93199.00;4997647;28;20141;-79
2022/05/09 03:02:23;;;;;;;7.68;2.78;;;;;;;10.20;93.69;93202.16;4997849;28;20026;-79
2022/05/09 03:04:49;;;;;;;6.68;2.60;;;;;;;10.18;93.08;93201.63;4996549;28;20033;-79
2022/05/09 03:07:17;;;;;;;4.57;2.60;;;;;;;10.14;93.68;93203.22;5015651;28;20033;-79
2022/05/09 03:09:45;;;;;;;5.30;2.50;;;;;;;10.09;93.76;93200.63;5015654;28;20037;-79
2022/05/09 03:12:11;;;;;;;5.15;2.70;;;;;;;10.06;93.35;93195.91;5015349;28;20046;-79
2022/05/09 03:14:38;;;;;;;7.53;3.33;;;;;;;10.01;92.55;93194.06;4996985;28;20060;-80
2022/05/09 03:17:05;;;;;;;6.53;3.80;;;;;;;10.01;92.62;93203.75;4980872;28;20049;-78
2022/05/09 03:19:30;;;;;;;9.77;4.07;;;;;;;9.95;92.75;93200.38;4996982;28;20030;-79
2022/05/09 03:21:56;;;;;;;5.68;3.25;;;;;;;9.94;92.48;93198.78;5019857;28;20092;-79
2022/05/09 03:24:22;;;;;;;5.07;2.90;;;;;;;9.90;92.26;93199.59;4999375;28;20046;-78
2022/05/09 03:26:49;;;;;;;5.55;2.90;;;;;;;9.84;92.01;93198.81;5018360;28;20042;-79
2022/05/09 03:29:16;;;;;;;4.65;2.47;;;;;;;9.79;91.80;93183.94;5000560;28;20029;-78
2022/05/09 03:31:42;;;;;;;5.57;2.60;;;;;;;9.84;91.24;93198.03;5018273;28;20030;-80
2022/05/09 03:34:08;;;;;;;4.72;2.60;;;;;;;9.83;91.00;93197.25;4983768;28;20046;-78
2022/05/09 03:36:34;;;;;;;6.50;2.60;;;;;;;9.83;90.97;93194.63;5000261;28;20037;-79
2022/05/09 03:39:01;;;;;;;9.07;2.92;;;;;;;9.82;91.10;93189.66;5018038;28;20037;-78
2022/05/09 03:41:26;;;;;;;5.63;2.67;;;;;;;9.78;90.66;93195.41;5017859;28;20041;-79
2022/05/09 03:43:52;;;;;;;5.68;2.72;;;;;;;9.74;90.12;93197.00;5018104;28;20404;-79
2022/05/09 03:46:18;;;;;;;5.53;2.50;;;;;;;9.70;90.61;93192.56;4995676;28;20038;-79
2022/05/09 03:48:44;;;;;;;5.15;2.50;;;;;;;9.70;90.51;93190.72;4998514;28;20049;-79
2022/05/09 03:51:10;;;;;;;12.27;4.40;;;;;;;9.66;90.25;93189.69;5000025;28;20042;-80
2022/05/09 03:53:36;;;;;;;5.03;2.80;;;;;;;9.64;90.12;93186.56;4998867;28;20034;-81
2022/05/09 03:56:02;;;;;;;4.10;2.47;;;;;;;9.64;90.08;93201.47;5015901;28;20052;-80
2022/05/09 03:58:28;;;;;;;4.90;2.83;;;;;;;9.57;89.87;93193.88;4998977;28;20073;-81
2022/05/09 04:00:54;;;;;;;7.40;2.80;;;;;;;9.58;89.55;93200.66;5017374;28;20033;-81
2022/05/09 04:03:20;;;;;;;6.22;2.92;;;;;;;9.57;89.29;93204.34;5017039;28;20037;-80
2022/05/09 04:05:47;;;;;;;5.20;2.90;;;;;;;9.56;89.28;93202.75;4998722;28;20045;-79
2022/05/09 04:08:17;;;;;;;5.95;2.70;;;;;;;9.54;89.18;93203.00;5017196;28;20400;-79
2022/05/09 04:10:45;;;;;;;5.13;2.85;;;;;;;9.52;88.43;93194.63;5014225;28;20042;-79
2022/05/09 04:13:11;;;;;;;9.10;3.25;;;;;;;9.49;88.27;93197.00;5016833;28;20048;-81
2022/05/09 04:18:38;;;;;;;6.18;3.30;;;;;;;9.40;88.60;93195.97;5001366;28;20176;-79
2022/05/09 04:21:06;;;;;;;5.18;2.83;;;;;;;9.44;88.72;93208.25;5001528;28;20050;-79
2022/05/09 04:23:31;;;;;;;7.32;2.88;;;;;;;9.41;88.51;93207.97;5012808;28;20053;-81
2022/05/09 04:25:57;;;;;;;4.78;3.00;;;;;;;9.40;88.52;93204.59;5014281;28;20112;-80
2022/05/09 04:28:22;;;;;;;6.93;3.00;;;;;;;9.42;88.02;93207.72;4998880;28;20118;-77
2022/05/09 04:30:51;;;;;;;8.07;2.88;;;;;;;9.40;87.66;93203.81;5018100;28;20060;-80
2022/05/09 04:33:17;;;;;;;5.45;2.95;;;;;;;9.46;87.72;93213.22;5011067;28;20533;-78
2022/05/09 04:35:44;;;;;;;4.72;2.80;;;;;;;9.48;87.72;93213.72;5014841;28;20035;-79
2022/05/09 04:38:22;;;;;;;5.22;2.80;;;;;;;9.52;87.90;93209.53;4994457;28;20037;-78
2022/05/09 04:40:51;;;;;;;5.45;2.80;;;;;;;9.61;87.69;93220.25;5008928;28;20034;-77
2022/05/09 04:43:23;;;;;;;4.65;2.88;;;;;;;9.61;87.47;93218.44;4993022;28;20109;-77
2022/05/09 04:45:49;;;;;;;6.05;2.97;;;;;;;9.65;87.37;93219.47;5014121;28;20096;-78
2022/05/09 04:48:20;;;;;;;5.32;3.15;;;;;;;9.67;86.72;93209.53;4982691;28;20150;-77
2022/05/09 04:50:45;;;;;;;6.50;3.00;;;;;;;9.75;86.28;93214.25;5000129;28;20060;-78
2022/05/09 04:53:11;;;;;;;5.55;3.10;;;;;;;9.83;85.86;93222.63;5000518;28;20121;-77
2022/05/09 04:55:39;;;;;;;7.65;3.17;;;;;;;9.89;86.18;93229.41;4987683;28;20062;-77
2022/05/09 04:58:05;;;;;;;7.45;3.28;;;;;;;9.93;86.20;93223.41;5011545;28;20045;-78
2022/05/09 05:00:32;;;;;;;5.25;2.78;;;;;;;10.05;85.93;93230.19;4995242;28;20037;-76
2022/05/09 05:02:57;;;;;;;7.07;3.13;;;;;;;10.11;86.00;93235.13;5012423;28;20030;-77
2022/05/09 05:05:25;;;;;;;6.55;3.40;;;;;;;10.23;85.77;93231.47;4993588;28;20096;-77
2022/05/09 05:07:52;;;;;;;7.40;2.85;;;;;;;10.31;85.54;93238.78;4995214;28;20030;-79
2022/05/09 05:10:19;;;;;;;4.60;2.80;;;;;;;10.39;85.87;93235.63;5012855;28;20029;-80
2022/05/09 05:12:44;;;;;;;9.48;3.10;;;;;;;10.48;86.09;93235.88;5012079;28;20041;-78
2022/05/09 05:15:12;;;;;;;5.03;2.90;;;;;;;10.55;85.93;93238.97;4994449;28;20120;-80
2022/05/09 05:17:37;;;;;;;5.22;3.08;;;;;;;10.64;86.16;93240.00;4984392;28;20045;-75
2022/05/09 05:20:10;;;;;;;6.50;2.78;;;;;;;10.74;85.87;93236.53;5011332;28;20049;-76
2022/05/09 05:22:40;;;;;;;;;;;;;;;10.84;85.25;93241.75;5009320;28;20073;-76
2022/05/09 05:25:07;;;;;;;8.90;3.20;;;;;;;10.94;84.58;93246.16;4992816;28;19914;-76
2022/05/09 05:27:32;;;;;;;6.00;3.10;;;;;;;11.01;83.80;93242.22;5010865;28;20044;-77
2022/05/09 05:29:59;;;;;;;7.13;3.10;;;;;;;11.11;83.58;93246.59;5010995;28;20037;-77
2022/05/09 05:32:31;;;;;;;5.35;3.17;;;;;;;11.21;83.20;93249.19;5011241;28;20033;-78
2022/05/09 05:34:58;;;;;;;5.53;3.10;;;;;;;11.32;83.75;93242.00;5015664;28;20042;-79
2022/05/09 05:37:24;;;;;;;5.85;2.90;;;;;;;11.48;83.39;93252.41;4994363;28;20041;-78
2022/05/09 05:39:49;;;;;;;4.93;2.90;;;;;;;11.62;82.68;93250.75;5014137;28;20038;-79
2022/05/09 05:42:18;;;;;;;4.63;2.95;;;;;;;11.77;82.08;93257.72;4997946;28;20467;-78
2022/05/09 05:44:45;;;;;;;5.63;2.90;;;;;;;11.93;82.01;93258.41;5015481;28;20087;-78
2022/05/09 05:47:13;;;;;;;8.13;3.20;;;;;;;12.07;84.03;93259.34;4996405;28;20033;-78
2022/05/09 05:49:40;;;;;;;5.13;3.03;;;;;;;12.27;85.94;93260.97;4998039;28;20025;-79
2022/05/09 05:52:07;;;;;;;6.35;3.08;;;;;;;12.39;86.29;93258.78;5014402;28;20037;-77
2022/05/09 05:54:36;;;;;;;6.78;3.15;;;;;;;12.61;83.42;93260.94;4996092;28;20080;-77
2022/05/09 05:57:04;;;;;;;6.70;3.05;;;;;;;12.91;83.27;93261.63;5012632;28;20065;-78
2022/05/09 05:59:30;;;;;;;10.63;3.35;;;;;;;13.66;83.49;93268.81;5013256;28;20034;-78
2022/05/09 06:01:58;;;;;;;12.00;3.60;;;;;;;14.52;79.93;93270.34;4998120;28;20492;-78
2022/05/09 06:04:24;;;;;;;5.78;3.00;;;;;;;15.39;75.86;93264.19;5016440;28;20030;-79
2022/05/09 06:06:50;;;;;;;7.22;2.70;;;;;;;16.15;73.93;93273.34;5015612;28;20432;-79
2022/05/09 06:09:16;;;;;;;5.35;2.80;;;;;;;16.80;71.35;93264.84;5015764;28;20263;-79
2022/05/09 06:11:43;;;;;;;7.15;2.80;;;;;;;17.47;70.13;93273.56;4999048;28;20068;-79
2022/05/09 06:14:12;;;;;;;13.73;3.17;;;;;;;18.12;64.36;93276.41;5016365;28;20105;-80
2022/05/09 06:16:47;;;;;;;7.20;2.90;;;;;;;18.47;65.03;93277.94;5015818;28;20093;-79
2022/05/09 06:19:13;;;;;;;7.90;2.60;;;;;;;18.61;65.28;93288.34;5015676;28;20129;-79
2022/05/09 06:21:38;;;;;;;8.63;2.70;;;;;;;18.99;62.40;93281.53;4998527;28;20117;-79
2022/05/09 06:24:06;;;;;;;5.97;3.00;;;;;;;19.25;62.42;93278.75;4998314;28;20046;-79
2022/05/09 06:26:34;;;;;;;6.43;3.30;;;;;;;19.40;63.08;93280.06;5016373;28;20347;-79
2022/05/09 06:29:00;;;;;;;6.10;3.78;;;;;;;19.21;59.27;93283.94;4988930;28;20030;-80
2022/05/09 06:31:26;;;;;;;7.10;3.17;;;;;;;19.19;61.43;93291.44;4996764;28;20042;-80
2022/05/09 06:33:52;;;;;;;11.38;3.30;;;;;;;19.33;60.92;93280.59;4978263;28;20089;-80
2022/05/09 06:36:17;;;;;;;6.65;3.25;;;;;;;19.62;61.06;93290.41;4996982;28;20030;-81
2022/05/09 06:38:43;;;;;;;6.53;3.25;;;;;;;19.20;62.44;93285.00;4983514;28;20042;-80
2022/05/09 06:41:10;;;;;;;9.52;3.35;;;;;;;18.80;63.61;93290.66;5016535;28;20095;-79
2022/05/09 06:43:36;;;;;;;5.55;2.90;;;;;;;18.36;64.60;93281.22;5015761;28;20040;-79
2022/05/09 06:46:03;;;;;;;7.78;3.50;;;;;;;18.15;64.98;93273.94;5015571;28;20038;-79
2022/05/09 06:48:28;;;;;;;10.63;2.80;;;;;;;18.15;61.07;93286.38;5015853;28;20033;-80
2022/05/09 06:50:54;;;;;;;7.78;2.72;;;;;;;17.79;61.19;93284.84;4997590;28;20475;-80
2022/05/09 06:53:20;;;;;;;6.55;2.78;;;;;;;17.63;62.60;93285.28;4998640;28;20046;-80
2022/05/09 06:55:49;;;;;;;5.60;2.88;;;;;;;17.36;64.15;93288.97;5015200;28;20041;-79
2022/05/09 06:58:21;;;;;;;7.40;2.95;;;;;;;17.26;66.30;93284.75;5001114;28;20389;-79
2022/05/09 07:00:47;;;;;;;11.68;3.30;;;;;;;16.95;69.73;93286.66;5019419;28;20062;-79
2022/05/09 07:03:14;;;;;;;6.75;3.10;;;;;;;16.84;70.57;93286.97;5001238;28;20728;-79
2022/05/09 07:05:43;;;;;;;8.20;3.90;;;;;;;16.42;71.91;93285.63;5002102;28;20026;-79
2022/05/09 07:08:09;;;;;;;9.25;4.20;;;;;;;16.39;71.83;93286.22;5019894;28;20034;-79
2022/05/09 07:10:36;;;;;;;8.73;3.47;;;;;;;16.40;72.53;93293.06;5001802;28;20100;-78
2022/05/09 07:13:04;;;;;;;6.07;3.25;;;;;;;16.72;70.93;93292.00;5019440;28;20037;-79
2022/05/09 07:15:31;;;;;;;7.93;3.30;;;;;;;16.79;69.48;93284.44;5002318;28;20077;-79
2022/05/09 07:18:01;;;;;;;5.88;3.05;;;;;;;16.92;69.67;93284.66;5001763;28;20099;-79
2022/05/09 07:20:30;;;;;;;5.63;3.40;;;;;;;16.80;69.58;93287.88;5018390;28;20477;-79
2022/05/09 07:23:10;;;;;;;6.35;2.88;;;;;;;17.02;69.93;93290.44;5006338;28;20049;-78
2022/05/09 07:25:37;;;;;;;7.15;3.05;;;;;;;16.84;70.71;93289.59;5034290;28;20122;-78
2022/05/09 07:28:04;;;;;;;8.98;3.33;;;;;;;16.50;72.63;93287.53;5002548;28;20041;-78
2022/05/09 07:30:29;;;;;;;7.82;3.70;;;;;;;16.30;74.43;93280.91;5019539;28;20102;-78
2022/05/09 07:32:55;;;;;;;5.72;3.45;;;;;;;16.32;72.86;93289.28;5017884;28;20061;-80
2022/05/09 07:35:22;;;;;;;8.75;3.67;;;;;;;16.08;73.45;93279.06;5001337;28;20038;-80
2022/05/09 07:37:48;;;;;;;7.32;3.70;;;;;;;16.26;73.87;93295.78;5018209;28;20060;-77
2022/05/09 07:40:17;;;;;;;7.38;3.35;;;;;;;16.52;72.37;93292.50;5000277;28;20018;-79
2022/05/09 07:42:44;;;;;;;10.27;3.10;;;;;;;16.59;71.29;93293.63;5000322;28;20045;-80
2022/05/09 07:45:13;;;;;;;5.43;3.30;;;;;;;16.71;69.94;93295.72;5003227;28;20030;-79
2022/05/09 07:47:39;;;;;;;6.07;3.33;;;;;;;16.52;72.29;93289.88;5019931;28;20053;-79
2022/05/09 07:50:06;;;;;;;7.93;3.08;;;;;;;16.69;70.40;93295.25;5000693;28;20060;-79
2022/05/09 07:52:32;;;;;;;8.20;3.15;;;;;;;16.76;71.40;93292.94;5000419;28;20106;-79
2022/05/09 07:54:58;;;;;;;5.82;3.08;;;;;;;16.61;72.19;93296.75;5017542;28;20041;-79
2022/05/09 07:57:24;;;;;;;5.70;3.25;;;;;;;16.27;72.25;93301.84;5000610;28;20068;-78
2022/05/09 07:59:49;;;;;;;6.93;3.35;;;;;;;16.31;72.14;93295.66;5019004;28;20049;-78
2022/05/09 08:02:15;;;;;;;5.10;3.00;;;;;;;16.50;73.14;93297.31;4983726;28;20038;-78
2022/05/09 08:04:40;;;;;;;5.38;2.85;;;;;;;16.82;70.51;93305.00;5002021;28;20041;-78
2022/05/09 08:07:06;;;;;;;7.25;2.80;;;;;;;16.57;70.16;93301.09;5001856;28;20069;-78
2022/05/09 08:09:33;;;;;;;5.35;3.30;;;;;;;16.64;70.40;93311.25;5000543;28;20107;-78
2022/05/09 08:12:00;;;;;;;8.50;3.08;;;;;;;16.58;69.60;93304.53;5019544;28;20100;-78
2022/05/09 08:14:27;;;;;;;5.03;3.00;;;;;;;16.63;69.73;93309.69;4998332;28;20423;-78
2022/05/09 08:16:54;;;;;;;6.10;3.08;;;;;;;16.77;68.38;93306.94;5014600;28;20038;-77
2022/05/09 08:19:19;;;;;;;5.45;3.00;;;;;;;16.64;66.83;93317.31;5015880;28;20113;-78
2022/05/09 08:21:49;;;;;;;6.40;3.30;;;;;;;16.57;69.09;93318.81;5014947;28;20158;-77
2022/05/09 08:24:16;;;;;;;10.82;3.20;;;;;;;16.55;69.40;93307.75;5014957;28;20058;-78
2022/05/09 08:26:41;;;;;;;4.88;2.35;;;;;;;16.60;60.70;93307.66;5015581;28;20033;-78
2022/05/09 08:29:07;;;;;;;5.25;2.47;;;;;;;16.77;65.30;93318.28;5015710;28;20123;-79
2022/05/09 08:31:33;;;;;;;4.97;2.75;;;;;;;16.74;61.94;93305.69;5016590;28;20030;-79
2022/05/09 08:33:59;;;;;;;6.45;2.78;;;;;;;17.18;61.44;93311.16;4982670;28;20038;-79
2022/05/09 08:39:09;;;;;;;4.53;2.40;;;;;;;16.90;58.10;93318.53;5015424;28;20030;-80
2022/05/09 08:41:43;;;;;;;6.38;2.88;;;;;;;16.83;63.83;93319.75;5016174;28;20164;-80
2022/05/09 08:44:19;;;;;;;6.75;2.80;;;;;;;16.95;65.31;93327.09;4998950;28;20038;-79
2022/05/09 08:47:27;;;;;;;8.18;3.10;;;;;;;17.04;62.94;93311.28;4979730;28;20034;-79
2022/05/09 08:50:16;;;;;;;5.43;2.50;;;;;;;17.03;61.47;93318.44;4996516;28;20057;-79
2022/05/09 08:53:23;;;;;;;6.25;2.80;;;;;;;17.20;65.39;93309.78;5009619;28;20037;-76
2022/05/09 08:55:51;;;;;;;4.45;2.92;;;;;;;16.93;64.93;93318.72;4931928;29;20123;-76
2022/05/09 08:58:25;;;;;;;4.95;2.97;;;;;;;17.12;64.87;93313.19;4926551;29;20430;-77
2022/05/09 09:00:53;;;;;;;6.47;3.05;;;;;;;17.17;63.14;93313.03;4975276;28;20056;-77
2022/05/09 09:04:05;;;;;;;4.05;2.42;;;;;;;17.43;62.09;93315.00;4994397;28;20029;-77
2022/05/09 09:07:25;;;;;;;6.13;2.72;;;;;;;17.36;64.17;93310.16;5009781;28;20045;-76
2022/05/09 09:09:53;;;;;;;6.68;3.20;;;;;;;17.54;63.14;93313.63;4931371;29;20134;-76
2022/05/09 09:12:57;;;;;;;8.40;3.00;;;;;;;17.34;65.06;93311.53;5002724;28;20041;-75
2022/05/09 09:15:45;;;;;;;8.45;2.78;;;;;;;17.46;61.50;93314.38;5011363;28;20046;-77
2022/05/09 09:18:34;;;;;;;7.65;3.35;;;;;;;17.19;64.43;93310.88;5003331;28;20476;-77
2022/05/09 09:21:11;;;;;;;6.65;2.63;;;;;;;17.31;62.86;93317.44;4986558;28;20044;-76
2022/05/09 09:24:10;;;;;;;6.35;3.22;;;;;;;17.30;63.20;93321.97;5010554;28;20756;-76
2022/05/09 09:26:35;;;;;;;6.85;3.47;;;;;;;17.42;62.45;93324.78;5011382;28;20034;-76
2022/05/09 09:29:15;;;;;;;7.45;3.90;;;;;;;17.32;61.84;93329.59;5011447;28;20113;-75
2022/05/09 09:31:53;;;;;;;7.68;3.67;;;;;;;17.16;60.56;93324.72;5010399;28;20034;-76
2022/05/09 09:34:22;;;;;;;7.82;4.13;;;;;;;17.12;63.55;93326.41;5011358;28;20480;-75
2022/05/09 09:36:59;;;;;;;4.78;2.67;;;;;;;17.40;62.49;93323.53;4993849;28;20029;-75
2022/05/09 09:39:26;;;;;;;7.90;4.03;;;;;;;17.16;62.85;93316.00;5010158;28;20492;-78
2022/05/09 09:41:52;;;;;;;5.88;3.38;;;;;;;17.33;59.98;93320.56;5012187;28;20501;-78
2022/05/09 09:44:21;;;;;;;6.18;3.67;;;;;;;17.16;58.77;93316.78;5012133;28;20042;-77
2022/05/09 09:46:59;;;;;;;12.20;4.35;;;;;;;16.95;61.30;93327.09;4995294;28;20499;-79
2022/05/09 09:49:25;;;;;;;7.38;3.67;;;;;;;17.21;59.47;93324.56;4997567;28;20030;-78
2022/05/09 09:51:51;;;;;;;7.53;4.15;;;;;;;17.31;59.20;93312.16;5010974;28;20053;-78
2022/05/09 09:54:25;;;;;;;6.35;3.38;;;;;;;17.37;59.89;93316.22;5011557;28;20037;-76
2022/05/09 09:56:50;;;;;;;8.05;3.63;;;;;;;17.43;59.87;93320.28;5013535;28;20030;-76
2022/05/09 09:59:23;;;;;;;5.53;3.17;;;;;;;17.56;56.76;93315.94;5010904;28;20030;-77
2022/05/09 10:02:12;;;;;;;8.05;3.55;;;;;;;17.22;56.98;93315.53;5011317;28;20060;-76
2022/05/09 10:04:38;;;;;;;7.05;3.92;;;;;;;17.38;58.70;93304.53;4990880;28;20034;-76
2022/05/09 10:07:12;;;;;;;14.23;4.50;;;;;;;18.02;58.98;93320.69;4977423;28;20431;-76
2022/05/09 10:09:42;;;;;;;7.72;4.32;;;;;;;18.33;56.83;93305.69;5009866;28;20372;-76
2022/05/09 10:12:18;;;;;;;5.47;3.60;;;;;;;18.37;56.12;93310.06;5005914;28;20112;-76
2022/05/09 10:14:44;;;;;;;12.50;4.57;;;;;;;17.98;54.77;93298.56;5004061;28;20070;-77
2022/05/09 10:17:13;;;;;;;8.70;3.58;;;;;;;17.94;53.01;93308.22;4993716;28;20022;-77
2022/05/09 10:19:38;;;;;;;9.13;4.80;;;;;;;18.15;55.94;93302.28;4965840;28;20038;-78
2022/05/09 10:25:20;;;;;;;13.95;4.50;;;;;;;18.49;56.28;93301.47;5011244;28;20068;-76
2022/05/09 10:28:01;;;;;;;8.85;4.45;;;;;;;18.47;54.56;93304.44;4994490;28;20038;-78
2022/05/09 10:30:40;;;;;;;8.48;4.15;;;;;;;18.57;53.96;93291.94;4994681;28;20101;-76
2022/05/09 10:33:09;;;;;;;8.88;4.68;;;;;;;18.84;55.00;93299.53;5014396;28;20099;-76
2022/05/09 10:35:43;;;;;;;8.30;4.10;;;;;;;18.45;53.89;93309.28;5014344;28;20025;-76
2022/05/09 10:38:19;;;;;;;9.77;5.60;;;;;;;18.66;54.48;93296.09;5014933;28;20034;-76
2022/05/09 10:40:50;;;;;;;9.07;4.93;;;;;;;18.76;54.69;93294.25;5014967;28;20034;-76
2022/05/09 10:43:29;;;;;;;6.85;4.22;;;;;;;18.63;55.11;93302.06;5015017;28;20040;-76
2022/05/09 10:45:55;;;;;;;10.02;4.68;;;;;;;18.48;55.78;93305.22;4997296;28;20065;-76
2022/05/09 10:48:34;;;;;;;8.38;5.00;;;;;;;18.23;56.28;93289.03;5014572;28;20065;-76
2022/05/09 10:51:28;;;;;;;7.85;4.82;;;;;;;18.33;56.80;93293.25;4995650;28;20049;-77
2022/05/09 10:54:06;;;;;;;9.88;5.32;;;;;;;18.18;55.84;93283.13;5000904;28;20523;-77
2022/05/09 10:56:35;;;;;;;9.32;5.45;;;;;;;18.22;56.04;93287.47;5001242;28;20511;-77
2022/05/09 10:59:11;;;;;;;9.30;5.70;;;;;;;18.05;56.31;93290.13;5014844;28;20105;-78
2022/05/09 11:01:56;;;;;;;10.43;5.85;;;;;;;17.94;57.47;93292.31;5017551;28;20041;-78
2022/05/09 11:04:24;;;;;;;10.88;5.45;;;;;;;18.22;56.61;93297.31;4994116;28;20038;-76
2022/05/09 11:07:00;;;;;;;10.35;5.32;;;;;;;18.22;57.80;93287.47;5004889;28;20503;-78
2022/05/09 11:09:34;;;;;;;9.98;5.75;;;;;;;18.09;57.17;93289.19;5008255;28;20396;-77
2022/05/09 11:12:28;;;;;;;11.70;4.72;;;;;;;17.95;57.68;93295.78;5008853;28;20092;-77
2022/05/09 11:15:18;;;;;;;12.73;6.30;;;;;;;17.60;58.53;93293.06;4992677;28;20061;-77
2022/05/09 11:18:01;;;;;;;7.43;5.03;;;;;;;17.55;58.31;93287.91;4994499;28;20532;-77
2022/05/09 11:20:30;;;;;;;11.85;6.70;;;;;;;17.41;58.02;93290.69;5007299;28;20387;-77
2022/05/09 11:23:12;;;;;;;13.68;7.10;;;;;;;17.43;60.16;93291.94;5007477;28;20504;-77
2022/05/09 11:26:09;;;;;;;13.10;7.97;;;;;;;17.44;59.62;93295.38;5021729;28;20038;-76
2022/05/09 11:28:48;;;;;;;15.65;7.47;;;;;;;17.23;59.34;93293.31;4996986;28;20114;-77
2022/05/09 11:31:27;;;;;;;15.50;8.30;;;;;;;17.04;59.73;93287.47;5008590;28;20038;-76
2022/05/09 11:34:23;;;;;;;16.17;8.75;;;;;;;17.19;60.88;93286.28;5012332;28;20033;-76
2022/05/09 11:37:02;;;;;;;12.65;6.95;;;;;;;17.58;60.17;93290.72;4995760;28;20034;-77
2022/05/09 11:39:57;;;;;;;20.80;7.57;;;;;;;17.62;57.58;93294.31;5011983;28;20044;-77
2022/05/09 11:45:36;;;;;;;16.85;7.88;;;;;;;17.75;56.42;93289.97;5010962;28;20038;-77
2022/05/09 11:48:22;;;;;;;15.07;7.45;;;;;;;17.60;56.48;93287.75;5013452;28;20037;-77
2022/05/09 11:51:01;;;;;;;20.52;8.35;;;;;;;17.79;55.44;93290.91;5013032;28;20041;-77
2022/05/09 11:53:32;;;;;;;16.10;7.20;;;;;;;17.83;57.31;93285.78;4995515;28;20048;-77
2022/05/09 11:56:05;;;;;;;12.10;7.10;;;;;;;17.76;54.92;93280.13;4994512;28;20037;-77
2022/05/09 11:58:45;;;;;;;13.60;6.57;;;;;;;17.82;55.11;93281.59;4985959;28;20034;-77
2022/05/09 12:01:11;;;;;;;13.63;7.20;;;;;;;18.04;53.00;93283.28;4978102;28;20069;-78
2022/05/09 12:03:40;;;;;;;13.13;6.13;;;;;;;18.15;55.39;93292.47;4994571;28;20558;-77